sensor_id;sensor_type;location;lat;lon;timestamp;P1;P2;P0
75960;PMS7003;64644;48.914;2.254;2023-09-18T00:01:47;4.00;4.00;3.00
75960;PMS7003;64644;48.914;2.254;2023-09-18T00:04:12;3.50;3.50;2.75
75960;PMS7003;64644;48.914;2.254;2023-09-18T00:06:37;5.25;3.00;2.75
75960;PMS7003;64644;48.914;2.254;2023-09-18T00:09:03;5.25;5.25;3.25
75960;PMS7003;64644;48.914;2.254;2023-09-18T00:11:28;3.75;3.75;2.50
75960;PMS7003;64644;48.914;2.254;2023-09-18T00:13:53;4.00;4.00;3.00
75960;PMS7003;64644;48.914;2.254;2023-09-18T00:16:19;4.00;4.00;2.00
75960;PMS7003;64644;48.914;2.254;2023-09-18T00:18:44;7.75;5.75;4.00
75960;PMS7003;64644;48.914;2.254;2023-09-18T00:21:10;5.25;5.25;4.00
75960;PMS7003;64644;48.914;2.254;2023-09-18T00:23:36;6.00;6.00;4.00
75960;PMS7003;64644;48.914;2.254;2023-09-18T00:26:02;5.00;5.00;3.00
75960;PMS7003;64644;48.914;2.254;2023-09-18T00:28:28;5.75;5.00;3.25
75960;PMS7003;64644;48.914;2.254;2023-09-18T00:30:55;7.75;6.00;4.00
75960;PMS7003;64644;48.914;2.254;2023-09-18T00:33:20;4.00;4.00;3.00
75960;PMS7003;64644;48.914;2.254;2023-09-18T00:35:49;5.25;4.00;3.00
75960;PMS7003;64644;48.914;2.254;2023-09-18T00:38:15;4.00;4.00;2.00
75960;PMS7003;64644;48.914;2.254;2023-09-18T00:40:41;3.00;3.00;3.00
75960;PMS7003;64644;48.914;2.254;2023-09-18T00:43:07;5.50;3.50;3.00
75960;PMS7003;64644;48.914;2.254;2023-09-18T00:45:33;4.00;4.00;2.00
75960;PMS7003;64644;48.914;2.254;2023-09-18T00:48:00;2.50;2.50;1.25
75960;PMS7003;64644;48.914;2.254;2023-09-18T00:50:25;2.75;2.75;2.00
75960;PMS7003;64644;48.914;2.254;2023-09-18T00:52:51;4.50;3.00;3.00
75960;PMS7003;64644;48.914;2.254;2023-09-18T00:55:17;4.00;4.00;2.75
75960;PMS7003;64644;48.914;2.254;2023-09-18T00:57:43;3.25;2.00;1.75
75960;PMS7003;64644;48.914;2.254;2023-09-18T01:00:09;1.50;1.50;1.25
75960;PMS7003;64644;48.914;2.254;2023-09-18T01:02:35;3.50;3.25;2.00
75960;PMS7003;64644;48.914;2.254;2023-09-18T01:05:01;2.00;2.00;2.00
75960;PMS7003;64644;48.914;2.254;2023-09-18T01:07:26;1.00;1.00;1.00
75960;PMS7003;64644;48.914;2.254;2023-09-18T01:09:53;3.50;2.50;1.25
75960;PMS7003;64644;48.914;2.254;2023-09-18T01:12:40;4.00;2.00;1.00
75960;PMS7003;64644;48.914;2.254;2023-09-18T01:15:19;2.00;2.00;1.25
75960;PMS7003;64644;48.914;2.254;2023-09-18T01:17:48;1.75;1.75;1.00
75960;PMS7003;64644;48.914;2.254;2023-09-18T01:20:13;2.00;2.00;1.00
75960;PMS7003;64644;48.914;2.254;2023-09-18T01:22:39;1.50;1.00;1.00
75960;PMS7003;64644;48.914;2.254;2023-09-18T01:25:04;1.25;1.25;1.00
75960;PMS7003;64644;48.914;2.254;2023-09-18T01:27:31;3.75;2.00;1.50
75960;PMS7003;64644;48.914;2.254;2023-09-18T01:29:57;1.50;1.50;1.00
75960;PMS7003;64644;48.914;2.254;2023-09-18T01:32:24;1.00;1.00;0.75
75960;PMS7003;64644;48.914;2.254;2023-09-18T01:34:53;3.25;1.25;1.25
75960;PMS7003;64644;48.914;2.254;2023-09-18T01:37:20;1.00;1.00;0.50
75960;PMS7003;64644;48.914;2.254;2023-09-18T01:39:48;2.50;2.50;2.00
75960;PMS7003;64644;48.914;2.254;2023-09-18T01:42:15;2.00;1.50;1.00
75960;PMS7003;64644;48.914;2.254;2023-09-18T01:44:41;2.00;0.50;0.00
75960;PMS7003;64644;48.914;2.254;2023-09-18T01:47:08;1.75;1.25;1.00
75960;PMS7003;64644;48.914;2.254;2023-09-18T01:49:36;1.00;1.00;1.00
75960;PMS7003;64644;48.914;2.254;2023-09-18T01:52:02;1.75;1.75;1.50
75960;PMS7003;64644;48.914;2.254;2023-09-18T01:54:30;1.75;1.75;1.75
75960;PMS7003;64644;48.914;2.254;2023-09-18T01:56:56;1.00;1.00;0.00
75960;PMS7003;64644;48.914;2.254;2023-09-18T01:59:21;1.00;1.00;0.00
75960;PMS7003;64644;48.914;2.254;2023-09-18T02:01:48;1.00;1.00;1.00
75960;PMS7003;64644;48.914;2.254;2023-09-18T02:04:14;2.00;2.00;1.00
75960;PMS7003;64644;48.914;2.254;2023-09-18T02:06:39;1.00;1.00;0.00
75960;PMS7003;64644;48.914;2.254;2023-09-18T02:09:05;2.00;1.75;0.00
75960;PMS7003;64644;48.914;2.254;2023-09-18T02:11:37;2.00;2.00;1.00
75960;PMS7003;64644;48.914;2.254;2023-09-18T02:14:08;1.50;1.50;0.00
75960;PMS7003;64644;48.914;2.254;2023-09-18T02:16:35;1.00;1.00;1.00
75960;PMS7003;64644;48.914;2.254;2023-09-18T02:19:01;1.25;1.00;0.75
75960;PMS7003;64644;48.914;2.254;2023-09-18T02:21:28;2.50;1.50;1.00
75960;PMS7003;64644;48.914;2.254;2023-09-18T02:23:53;1.00;1.00;1.00
75960;PMS7003;64644;48.914;2.254;2023-09-18T02:26:20;2.25;1.75;1.00
75960;PMS7003;64644;48.914;2.254;2023-09-18T02:28:46;2.00;2.00;1.00
75960;PMS7003;64644;48.914;2.254;2023-09-18T02:31:11;1.00;1.00;0.50
75960;PMS7003;64644;48.914;2.254;2023-09-18T02:33:37;1.00;1.00;1.00
75960;PMS7003;64644;48.914;2.254;2023-09-18T02:36:03;2.00;2.00;1.00
75960;PMS7003;64644;48.914;2.254;2023-09-18T02:38:29;2.25;2.25;2.00
75960;PMS7003;64644;48.914;2.254;2023-09-18T02:40:55;1.00;1.00;1.00
75960;PMS7003;64644;48.914;2.254;2023-09-18T02:43:21;0.75;0.50;0.50
75960;PMS7003;64644;48.914;2.254;2023-09-18T02:45:47;2.00;2.00;2.00
75960;PMS7003;64644;48.914;2.254;2023-09-18T02:48:13;1.75;1.75;1.00
75960;PMS7003;64644;48.914;2.254;2023-09-18T02:50:38;3.00;3.00;1.75
75960;PMS7003;64644;48.914;2.254;2023-09-18T02:53:05;1.25;1.00;0.00
75960;PMS7003;64644;48.914;2.254;2023-09-18T02:55:31;2.50;2.50;1.25
75960;PMS7003;64644;48.914;2.254;2023-09-18T02:57:57;2.75;2.25;2.00
75960;PMS7003;64644;48.914;2.254;2023-09-18T03:00:22;2.25;2.25;1.25
75960;PMS7003;64644;48.914;2.254;2023-09-18T03:02:47;2.00;2.00;1.75
75960;PMS7003;64644;48.914;2.254;2023-09-18T03:05:13;1.75;1.75;1.00
75960;PMS7003;64644;48.914;2.254;2023-09-18T03:07:38;1.50;1.50;1.00
75960;PMS7003;64644;48.914;2.254;2023-09-18T03:10:04;5.00;3.00;2.00
75960;PMS7003;64644;48.914;2.254;2023-09-18T03:12:30;2.75;2.00;1.25
75960;PMS7003;64644;48.914;2.254;2023-09-18T03:14:56;3.50;3.00;2.00
75960;PMS7003;64644;48.914;2.254;2023-09-18T03:17:22;2.50;2.50;2.00
75960;PMS7003;64644;48.914;2.254;2023-09-18T03:19:48;3.00;3.00;1.50
75960;PMS7003;64644;48.914;2.254;2023-09-18T03:22:14;3.00;3.00;2.00
75960;PMS7003;64644;48.914;2.254;2023-09-18T03:24:39;2.50;2.00;1.75
75960;PMS7003;64644;48.914;2.254;2023-09-18T03:27:04;2.00;2.00;2.00
75960;PMS7003;64644;48.914;2.254;2023-09-18T03:29:30;2.75;2.75;2.00
75960;PMS7003;64644;48.914;2.254;2023-09-18T03:31:55;3.00;3.00;1.50
75960;PMS7003;64644;48.914;2.254;2023-09-18T03:34:23;4.00;2.00;1.00
75960;PMS7003;64644;48.914;2.254;2023-09-18T03:36:51;2.00;2.00;1.25
75960;PMS7003;64644;48.914;2.254;2023-09-18T03:39:16;2.00;2.00;1.00
75960;PMS7003;64644;48.914;2.254;2023-09-18T03:41:42;2.75;2.75;2.00
75960;PMS7003;64644;48.914;2.254;2023-09-18T03:44:07;2.25;2.25;1.75
75960;PMS7003;64644;48.914;2.254;2023-09-18T03:46:32;2.25;2.25;1.75
75960;PMS7003;64644;48.914;2.254;2023-09-18T03:48:58;4.00;2.00;1.00
75960;PMS7003;64644;48.914;2.254;2023-09-18T03:51:23;2.25;2.25;1.00
75960;PMS7003;64644;48.914;2.254;2023-09-18T03:53:48;2.25;2.25;2.00
75960;PMS7003;64644;48.914;2.254;2023-09-18T03:56:14;3.00;2.00;1.50
75960;PMS7003;64644;48.914;2.254;2023-09-18T03:58:40;1.25;1.25;0.75
75960;PMS7003;64644;48.914;2.254;2023-09-18T04:01:07;3.00;3.00;1.00
75960;PMS7003;64644;48.914;2.254;2023-09-18T04:03:33;1.25;1.25;1.00
75960;PMS7003;64644;48.914;2.254;2023-09-18T04:05:58;2.75;2.75;2.00
75960;PMS7003;64644;48.914;2.254;2023-09-18T04:08:23;3.00;3.00;2.00
75960;PMS7003;64644;48.914;2.254;2023-09-18T04:10:49;3.00;2.00;1.00
75960;PMS7003;64644;48.914;2.254;2023-09-18T04:13:14;3.75;2.25;1.00
75960;PMS7003;64644;48.914;2.254;2023-09-18T04:15:39;3.00;3.00;2.00
75960;PMS7003;64644;48.914;2.254;2023-09-18T04:18:05;2.50;2.50;2.00
75960;PMS7003;64644;48.914;2.254;2023-09-18T04:20:30;2.00;2.00;1.75
75960;PMS7003;64644;48.914;2.254;2023-09-18T04:25:43;5.00;3.75;2.75
75960;PMS7003;64644;48.914;2.254;2023-09-18T04:28:09;1.75;1.75;1.00
75960;PMS7003;64644;48.914;2.254;2023-09-18T04:30:34;2.75;2.75;2.00
75960;PMS7003;64644;48.914;2.254;2023-09-18T04:33:00;3.00;3.00;2.00
75960;PMS7003;64644;48.914;2.254;2023-09-18T04:35:26;2.00;2.00;2.00
75960;PMS7003;64644;48.914;2.254;2023-09-18T04:37:55;4.00;3.50;1.75
75960;PMS7003;64644;48.914;2.254;2023-09-18T04:40:21;3.00;3.00;2.50
75960;PMS7003;64644;48.914;2.254;2023-09-18T04:42:49;4.75;3.50;2.00
75960;PMS7003;64644;48.914;2.254;2023-09-18T04:45:14;2.25;2.25;2.00
75960;PMS7003;64644;48.914;2.254;2023-09-18T04:47:41;3.50;3.00;2.25
75960;PMS7003;64644;48.914;2.254;2023-09-18T04:50:06;3.25;3.25;2.00
75960;PMS7003;64644;48.914;2.254;2023-09-18T04:52:34;5.50;3.00;2.00
75960;PMS7003;64644;48.914;2.254;2023-09-18T04:55:00;2.00;2.00;1.25
75960;PMS7003;64644;48.914;2.254;2023-09-18T04:57:25;4.50;3.50;3.00
75960;PMS7003;64644;48.914;2.254;2023-09-18T04:59:51;3.25;3.25;2.75
75960;PMS7003;64644;48.914;2.254;2023-09-18T05:02:16;2.25;2.25;2.00
75960;PMS7003;64644;48.914;2.254;2023-09-18T05:04:42;3.00;3.00;2.00
75960;PMS7003;64644;48.914;2.254;2023-09-18T05:07:07;4.00;3.75;2.00
75960;PMS7003;64644;48.914;2.254;2023-09-18T05:09:33;4.00;4.00;3.75
75960;PMS7003;64644;48.914;2.254;2023-09-18T05:11:59;5.50;5.00;3.00
75960;PMS7003;64644;48.914;2.254;2023-09-18T05:14:24;3.00;3.00;2.00
75960;PMS7003;64644;48.914;2.254;2023-09-18T05:16:50;3.50;3.50;3.25
75960;PMS7003;64644;48.914;2.254;2023-09-18T05:19:15;4.00;2.75;2.00
75960;PMS7003;64644;48.914;2.254;2023-09-18T05:21:41;2.75;2.50;2.25
75960;PMS7003;64644;48.914;2.254;2023-09-18T05:24:07;3.00;3.00;2.25
75960;PMS7003;64644;48.914;2.254;2023-09-18T05:26:32;6.50;4.75;3.50
75960;PMS7003;64644;48.914;2.254;2023-09-18T05:28:58;4.25;4.25;3.00
75960;PMS7003;64644;48.914;2.254;2023-09-18T05:31:24;3.75;3.50;3.00
75960;PMS7003;64644;48.914;2.254;2023-09-18T05:33:49;3.75;3.75;2.50
75960;PMS7003;64644;48.914;2.254;2023-09-18T05:36:15;4.25;4.25;3.25
75960;PMS7003;64644;48.914;2.254;2023-09-18T05:38:40;4.50;4.00;3.00
75960;PMS7003;64644;48.914;2.254;2023-09-18T05:41:06;4.75;4.25;3.75
75960;PMS7003;64644;48.914;2.254;2023-09-18T05:43:31;5.00;3.50;3.00
75960;PMS7003;64644;48.914;2.254;2023-09-18T05:45:57;6.00;4.00;3.00
75960;PMS7003;64644;48.914;2.254;2023-09-18T05:48:22;4.75;4.75;3.00
75960;PMS7003;64644;48.914;2.254;2023-09-18T05:50:47;4.00;4.00;2.75
75960;PMS7003;64644;48.914;2.254;2023-09-18T05:53:13;7.25;6.00;4.00
75960;PMS7003;64644;48.914;2.254;2023-09-18T05:55:38;6.00;5.00;4.00
75960;PMS7003;64644;48.914;2.254;2023-09-18T05:58:04;5.25;5.25;4.00
75960;PMS7003;64644;48.914;2.254;2023-09-18T06:00:32;4.25;4.25;4.00
75960;PMS7003;64644;48.914;2.254;2023-09-18T06:02:58;6.50;5.25;4.25
75960;PMS7003;64644;48.914;2.254;2023-09-18T06:05:24;7.25;5.50;4.00
75960;PMS7003;64644;48.914;2.254;2023-09-18T06:07:49;6.75;5.75;4.50
75960;PMS7003;64644;48.914;2.254;2023-09-18T06:10:15;6.00;6.00;5.25
75960;PMS7003;64644;48.914;2.254;2023-09-18T06:12:41;6.00;6.00;4.00
75960;PMS7003;64644;48.914;2.254;2023-09-18T06:15:07;5.25;4.25;3.00
75960;PMS7003;64644;48.914;2.254;2023-09-18T06:17:40;5.00;5.00;3.50
75960;PMS7003;64644;48.914;2.254;2023-09-18T06:20:06;6.00;6.00;5.25
75960;PMS7003;64644;48.914;2.254;2023-09-18T06:22:34;9.25;6.00;5.00
75960;PMS7003;64644;48.914;2.254;2023-09-18T06:24:59;5.50;4.50;3.75
75960;PMS7003;64644;48.914;2.254;2023-09-18T06:27:25;5.75;5.25;4.25
75960;PMS7003;64644;48.914;2.254;2023-09-18T06:29:50;5.75;5.75;4.50
75960;PMS7003;64644;48.914;2.254;2023-09-18T06:32:15;5.00;5.00;3.25
75960;PMS7003;64644;48.914;2.254;2023-09-18T06:34:41;7.00;6.75;5.75
75960;PMS7003;64644;48.914;2.254;2023-09-18T06:37:09;8.50;8.50;5.00
75960;PMS7003;64644;48.914;2.254;2023-09-18T06:39:37;5.75;5.00;5.00
75960;PMS7003;64644;48.914;2.254;2023-09-18T06:42:03;7.25;7.25;4.50
75960;PMS7003;64644;48.914;2.254;2023-09-18T06:44:29;5.00;5.00;4.00
75960;PMS7003;64644;48.914;2.254;2023-09-18T06:46:54;5.25;4.50;4.00
75960;PMS7003;64644;48.914;2.254;2023-09-18T06:49:20;4.50;4.50;3.00
75960;PMS7003;64644;48.914;2.254;2023-09-18T06:51:45;7.25;6.75;4.50
75960;PMS7003;64644;48.914;2.254;2023-09-18T06:54:10;7.75;6.75;5.00
75960;PMS7003;64644;48.914;2.254;2023-09-18T06:56:36;6.75;5.00;3.75
75960;PMS7003;64644;48.914;2.254;2023-09-18T06:59:01;5.25;5.25;4.00
75960;PMS7003;64644;48.914;2.254;2023-09-18T07:01:27;7.50;6.25;5.00
75960;PMS7003;64644;48.914;2.254;2023-09-18T07:03:53;11.50;9.00;6.25
75960;PMS7003;64644;48.914;2.254;2023-09-18T07:06:18;8.00;8.00;6.25
75960;PMS7003;64644;48.914;2.254;2023-09-18T07:08:45;8.25;5.50;4.00
75960;PMS7003;64644;48.914;2.254;2023-09-18T07:11:12;7.25;7.25;5.00
75960;PMS7003;64644;48.914;2.254;2023-09-18T07:13:40;6.25;6.25;4.75
75960;PMS7003;64644;48.914;2.254;2023-09-18T07:16:05;6.25;6.25;5.00
75960;PMS7003;64644;48.914;2.254;2023-09-18T07:18:31;11.00;6.50;5.50
75960;PMS7003;64644;48.914;2.254;2023-09-18T07:20:56;7.75;6.50;5.00
75960;PMS7003;64644;48.914;2.254;2023-09-18T07:23:22;8.25;6.50;5.00
75960;PMS7003;64644;48.914;2.254;2023-09-18T07:25:47;9.75;8.25;6.25
75960;PMS7003;64644;48.914;2.254;2023-09-18T07:28:13;7.00;7.00;6.00
75960;PMS7003;64644;48.914;2.254;2023-09-18T07:30:42;8.00;7.00;6.00
75960;PMS7003;64644;48.914;2.254;2023-09-18T07:33:11;8.25;8.25;6.00
75960;PMS7003;64644;48.914;2.254;2023-09-18T07:35:37;8.00;8.00;5.75
75960;PMS7003;64644;48.914;2.254;2023-09-18T07:38:03;8.25;6.25;5.00
75960;PMS7003;64644;48.914;2.254;2023-09-18T07:40:29;7.50;7.50;6.00
75960;PMS7003;64644;48.914;2.254;2023-09-18T07:42:54;4.50;4.00;2.75
75960;PMS7003;64644;48.914;2.254;2023-09-18T07:45:20;8.50;8.50;6.00
75960;PMS7003;64644;48.914;2.254;2023-09-18T07:47:45;9.00;9.00;6.25
75960;PMS7003;64644;48.914;2.254;2023-09-18T07:50:10;9.00;7.25;5.00
75960;PMS7003;64644;48.914;2.254;2023-09-18T07:52:36;8.50;8.00;4.75
75960;PMS7003;64644;48.914;2.254;2023-09-18T07:55:02;5.00;5.00;3.75
75960;PMS7003;64644;48.914;2.254;2023-09-18T07:57:28;8.25;7.00;5.00
75960;PMS7003;64644;48.914;2.254;2023-09-18T07:59:55;5.50;4.50;4.00
75960;PMS7003;64644;48.914;2.254;2023-09-18T08:02:20;9.25;8.00;6.50
75960;PMS7003;64644;48.914;2.254;2023-09-18T08:04:46;8.75;6.50;4.75
75960;PMS7003;64644;48.914;2.254;2023-09-18T08:07:12;7.50;5.75;4.00
75960;PMS7003;64644;48.914;2.254;2023-09-18T08:09:37;6.50;6.00;4.25
75960;PMS7003;64644;48.914;2.254;2023-09-18T08:12:03;5.00;5.00;4.00
75960;PMS7003;64644;48.914;2.254;2023-09-18T08:14:30;5.00;5.00;4.50
75960;PMS7003;64644;48.914;2.254;2023-09-18T08:16:56;6.75;6.75;5.00
75960;PMS7003;64644;48.914;2.254;2023-09-18T08:19:25;6.50;6.25;4.25
75960;PMS7003;64644;48.914;2.254;2023-09-18T08:21:54;7.00;7.00;4.75
75960;PMS7003;64644;48.914;2.254;2023-09-18T08:24:21;5.75;5.75;4.75
75960;PMS7003;64644;48.914;2.254;2023-09-18T08:26:47;7.25;7.25;4.75
75960;PMS7003;64644;48.914;2.254;2023-09-18T08:29:12;6.00;6.00;4.25
75960;PMS7003;64644;48.914;2.254;2023-09-18T08:31:38;6.00;6.00;4.00
75960;PMS7003;64644;48.914;2.254;2023-09-18T08:34:03;6.50;6.50;4.75
75960;PMS7003;64644;48.914;2.254;2023-09-18T08:36:29;5.50;5.50;4.25
75960;PMS7003;64644;48.914;2.254;2023-09-18T08:38:56;6.25;6.25;4.00
75960;PMS7003;64644;48.914;2.254;2023-09-18T08:41:21;6.25;5.00;4.00
75960;PMS7003;64644;48.914;2.254;2023-09-18T08:43:51;5.25;5.25;4.50
75960;PMS7003;64644;48.914;2.254;2023-09-18T08:46:20;6.75;5.75;4.00
75960;PMS7003;64644;48.914;2.254;2023-09-18T08:48:46;6.50;5.00;4.50
75960;PMS7003;64644;48.914;2.254;2023-09-18T08:51:12;5.25;5.25;4.25
75960;PMS7003;64644;48.914;2.254;2023-09-18T08:53:39;5.00;5.00;2.75
75960;PMS7003;64644;48.914;2.254;2023-09-18T08:56:06;6.25;5.00;3.00
75960;PMS7003;64644;48.914;2.254;2023-09-18T08:58:34;6.75;6.75;5.00
75960;PMS7003;64644;48.914;2.254;2023-09-18T09:01:04;5.00;5.00;3.50
75960;PMS7003;64644;48.914;2.254;2023-09-18T09:03:31;6.25;6.00;4.50
75960;PMS7003;64644;48.914;2.254;2023-09-18T09:05:57;6.50;5.00;4.25
75960;PMS7003;64644;48.914;2.254;2023-09-18T09:08:26;7.00;6.00;4.50
75960;PMS7003;64644;48.914;2.254;2023-09-18T09:10:52;4.25;3.75;3.00
75960;PMS7003;64644;48.914;2.254;2023-09-18T09:13:18;6.00;6.00;4.50
75960;PMS7003;64644;48.914;2.254;2023-09-18T09:15:47;4.25;4.25;3.75
75960;PMS7003;64644;48.914;2.254;2023-09-18T09:18:13;4.50;4.50;3.50
75960;PMS7003;64644;48.914;2.254;2023-09-18T09:20:52;5.75;5.75;4.00
75960;PMS7003;64644;48.914;2.254;2023-09-18T09:23:25;6.75;3.75;3.00
75960;PMS7003;64644;48.914;2.254;2023-09-18T09:25:51;4.75;4.75;3.00
75960;PMS7003;64644;48.914;2.254;2023-09-18T09:28:26;6.00;5.50;4.00
75960;PMS7003;64644;48.914;2.254;2023-09-18T09:30:59;7.00;6.00;4.00
75960;PMS7003;64644;48.914;2.254;2023-09-18T09:33:27;7.00;5.00;4.00
75960;PMS7003;64644;48.914;2.254;2023-09-18T09:35:52;4.25;4.25;3.25
75960;PMS7003;64644;48.914;2.254;2023-09-18T09:38:17;5.00;5.00;3.75
75960;PMS7003;64644;48.914;2.254;2023-09-18T09:40:45;5.50;4.50;3.50
75960;PMS7003;64644;48.914;2.254;2023-09-18T09:43:11;4.00;4.00;3.50
75960;PMS7003;64644;48.914;2.254;2023-09-18T09:45:39;5.50;4.00;3.00
75960;PMS7003;64644;48.914;2.254;2023-09-18T09:48:06;5.50;4.50;4.00
75960;PMS7003;64644;48.914;2.254;2023-09-18T09:50:32;4.50;4.50;3.25
75960;PMS7003;64644;48.914;2.254;2023-09-18T09:52:59;5.00;5.00;4.00
75960;PMS7003;64644;48.914;2.254;2023-09-18T09:55:29;5.00;5.00;4.00
75960;PMS7003;64644;48.914;2.254;2023-09-18T09:57:58;4.00;4.00;3.00
75960;PMS7003;64644;48.914;2.254;2023-09-18T10:03:21;5.25;5.00;3.75
75960;PMS7003;64644;48.914;2.254;2023-09-18T10:05:47;4.00;3.25;3.00
75960;PMS7003;64644;48.914;2.254;2023-09-18T10:08:22;4.50;3.75;3.00
75960;PMS7003;64644;48.914;2.254;2023-09-18T10:10:50;3.00;3.00;2.75
75960;PMS7003;64644;48.914;2.254;2023-09-18T10:16:01;5.00;4.00;3.00
75960;PMS7003;64644;48.914;2.254;2023-09-18T10:23:38;4.75;3.25;2.50
75960;PMS7003;64644;48.914;2.254;2023-09-18T10:26:15;3.00;3.00;3.00
75960;PMS7003;64644;48.914;2.254;2023-09-18T10:28:49;8.75;8.75;6.25
75960;PMS7003;64644;48.914;2.254;2023-09-18T10:31:18;16.75;15.00;13.00
75960;PMS7003;64644;48.914;2.254;2023-09-18T10:33:45;13.75;10.25;7.50
75960;PMS7003;64644;48.914;2.254;2023-09-18T10:36:13;12.25;10.50;8.50
75960;PMS7003;64644;48.914;2.254;2023-09-18T10:38:42;5.75;5.75;4.75
75960;PMS7003;64644;48.914;2.254;2023-09-18T10:41:09;4.00;4.00;3.00
75960;PMS7003;64644;48.914;2.254;2023-09-18T10:43:36;3.75;2.75;2.00
75960;PMS7003;64644;48.914;2.254;2023-09-18T10:46:02;2.25;2.25;2.00
75960;PMS7003;64644;48.914;2.254;2023-09-18T10:48:28;4.00;3.50;3.00
75960;PMS7003;64644;48.914;2.254;2023-09-18T10:50:54;4.00;4.00;2.50
75960;PMS7003;64644;48.914;2.254;2023-09-18T10:53:19;3.00;3.00;2.50
75960;PMS7003;64644;48.914;2.254;2023-09-18T10:55:46;2.50;2.50;2.25
75960;PMS7003;64644;48.914;2.254;2023-09-18T10:58:13;5.50;4.50;2.75
75960;PMS7003;64644;48.914;2.254;2023-09-18T11:00:49;3.75;3.75;2.00
75960;PMS7003;64644;48.914;2.254;2023-09-18T11:03:15;4.00;4.00;3.00
75960;PMS7003;64644;48.914;2.254;2023-09-18T11:05:45;4.00;4.00;3.00
75960;PMS7003;64644;48.914;2.254;2023-09-18T11:08:26;4.50;2.00;2.00
75960;PMS7003;64644;48.914;2.254;2023-09-18T11:11:00;3.00;3.00;2.00
75960;PMS7003;64644;48.914;2.254;2023-09-18T11:13:34;2.75;2.00;2.00
75960;PMS7003;64644;48.914;2.254;2023-09-18T11:16:02;2.75;2.75;2.00
75960;PMS7003;64644;48.914;2.254;2023-09-18T11:18:47;3.75;3.75;3.25
75960;PMS7003;64644;48.914;2.254;2023-09-18T11:21:15;6.25;4.00;2.00
75960;PMS7003;64644;48.914;2.254;2023-09-18T11:23:43;2.75;2.75;2.25
75960;PMS7003;64644;48.914;2.254;2023-09-18T11:26:10;2.00;2.00;1.00
75960;PMS7003;64644;48.914;2.254;2023-09-18T11:28:36;2.50;2.50;2.00
75960;PMS7003;64644;48.914;2.254;2023-09-18T11:31:05;5.25;4.00;2.00
75960;PMS7003;64644;48.914;2.254;2023-09-18T11:33:31;5.75;3.00;2.50
75960;PMS7003;64644;48.914;2.254;2023-09-18T11:36:08;3.75;3.75;3.00
75960;PMS7003;64644;48.914;2.254;2023-09-18T11:41:20;3.00;3.00;3.00
75960;PMS7003;64644;48.914;2.254;2023-09-18T11:46:37;3.25;3.25;2.00
75960;PMS7003;64644;48.914;2.254;2023-09-18T11:49:05;4.25;3.25;3.00
75960;PMS7003;64644;48.914;2.254;2023-09-18T11:51:32;5.50;3.00;2.50
75960;PMS7003;64644;48.914;2.254;2023-09-18T11:53:59;3.50;3.25;2.25
75960;PMS7003;64644;48.914;2.254;2023-09-18T11:56:26;3.00;3.00;2.25
75960;PMS7003;64644;48.914;2.254;2023-09-18T11:58:51;3.50;3.50;3.00
75960;PMS7003;64644;48.914;2.254;2023-09-18T12:01:19;5.50;3.50;2.75
75960;PMS7003;64644;48.914;2.254;2023-09-18T12:03:52;3.75;3.75;2.50
75960;PMS7003;64644;48.914;2.254;2023-09-18T12:06:18;2.25;2.25;2.00
75960;PMS7003;64644;48.914;2.254;2023-09-18T12:08:44;3.25;2.50;2.00
75960;PMS7003;64644;48.914;2.254;2023-09-18T12:11:11;3.50;2.25;1.25
75960;PMS7003;64644;48.914;2.254;2023-09-18T12:13:41;2.50;2.50;2.25
75960;PMS7003;64644;48.914;2.254;2023-09-18T12:16:08;2.00;2.00;1.50
75960;PMS7003;64644;48.914;2.254;2023-09-18T12:18:34;2.25;2.25;1.50
75960;PMS7003;64644;48.914;2.254;2023-09-18T12:21:02;4.25;2.50;1.25
75960;PMS7003;64644;48.914;2.254;2023-09-18T12:23:41;2.50;2.50;2.25
75960;PMS7003;64644;48.914;2.254;2023-09-18T12:26:13;3.75;2.00;2.00
75960;PMS7003;64644;48.914;2.254;2023-09-18T12:28:41;2.75;1.75;1.50
75960;PMS7003;64644;48.914;2.254;2023-09-18T12:31:11;2.00;2.00;1.50
75960;PMS7003;64644;48.914;2.254;2023-09-18T12:33:38;1.75;1.25;0.75
75960;PMS7003;64644;48.914;2.254;2023-09-18T12:36:05;4.75;2.50;1.75
75960;PMS7003;64644;48.914;2.254;2023-09-18T12:38:33;3.25;3.25;3.00
75960;PMS7003;64644;48.914;2.254;2023-09-18T12:40:59;5.00;3.75;2.00
75960;PMS7003;64644;48.914;2.254;2023-09-18T12:43:38;4.25;2.75;2.50
75960;PMS7003;64644;48.914;2.254;2023-09-18T12:46:05;4.75;3.50;2.00
75960;PMS7003;64644;48.914;2.254;2023-09-18T12:48:32;3.00;3.00;2.00
75960;PMS7003;64644;48.914;2.254;2023-09-18T12:51:06;2.25;2.25;1.25
75960;PMS7003;64644;48.914;2.254;2023-09-18T12:53:32;3.50;3.00;2.75
75960;PMS7003;64644;48.914;2.254;2023-09-18T12:56:05;3.00;3.00;2.00
75960;PMS7003;64644;48.914;2.254;2023-09-18T12:58:32;3.25;2.75;2.00
75960;PMS7003;64644;48.914;2.254;2023-09-18T13:00:58;3.00;3.00;2.25
75960;PMS7003;64644;48.914;2.254;2023-09-18T13:03:31;3.50;3.00;1.75
75960;PMS7003;64644;48.914;2.254;2023-09-18T13:06:10;3.00;3.00;2.00
75960;PMS7003;64644;48.914;2.254;2023-09-18T13:08:37;3.75;2.00;2.00
75960;PMS7003;64644;48.914;2.254;2023-09-18T13:11:03;1.75;1.75;1.00
75960;PMS7003;64644;48.914;2.254;2023-09-18T13:13:28;2.00;2.00;2.00
75960;PMS7003;64644;48.914;2.254;2023-09-18T13:15:57;2.00;2.00;2.00
75960;PMS7003;64644;48.914;2.254;2023-09-18T13:18:24;2.50;2.50;2.00
75960;PMS7003;64644;48.914;2.254;2023-09-18T13:20:51;3.00;3.00;2.00
75960;PMS7003;64644;48.914;2.254;2023-09-18T13:23:16;2.25;2.25;2.00
75960;PMS7003;64644;48.914;2.254;2023-09-18T13:25:43;2.00;2.00;2.00
75960;PMS7003;64644;48.914;2.254;2023-09-18T13:28:10;2.50;2.50;2.00
75960;PMS7003;64644;48.914;2.254;2023-09-18T13:30:37;1.50;1.50;1.00
75960;PMS7003;64644;48.914;2.254;2023-09-18T13:33:07;1.50;1.50;1.25
75960;PMS7003;64644;48.914;2.254;2023-09-18T13:35:35;1.00;1.00;1.00
75960;PMS7003;64644;48.914;2.254;2023-09-18T13:38:02;2.00;1.75;1.00
75960;PMS7003;64644;48.914;2.254;2023-09-18T13:40:32;1.50;1.50;1.25
75960;PMS7003;64644;48.914;2.254;2023-09-18T13:43:00;3.50;3.50;2.00
75960;PMS7003;64644;48.914;2.254;2023-09-18T13:45:26;1.00;1.00;1.00
75960;PMS7003;64644;48.914;2.254;2023-09-18T13:47:59;2.00;2.00;1.00
75960;PMS7003;64644;48.914;2.254;2023-09-18T13:50:33;1.50;1.50;1.50
75960;PMS7003;64644;48.914;2.254;2023-09-18T13:53:00;1.00;1.00;1.00
75960;PMS7003;64644;48.914;2.254;2023-09-18T13:55:26;2.00;1.00;1.00
75960;PMS7003;64644;48.914;2.254;2023-09-18T13:57:51;2.00;1.00;1.00
75960;PMS7003;64644;48.914;2.254;2023-09-18T14:00:17;1.00;1.00;0.50
75960;PMS7003;64644;48.914;2.254;2023-09-18T14:02:43;1.50;1.50;1.00
75960;PMS7003;64644;48.914;2.254;2023-09-18T14:05:08;1.25;1.25;1.00
75960;PMS7003;64644;48.914;2.254;2023-09-18T14:07:36;1.50;1.50;1.00
75960;PMS7003;64644;48.914;2.254;2023-09-18T14:10:06;2.00;0.25;0.25
75960;PMS7003;64644;48.914;2.254;2023-09-18T14:12:32;1.00;1.00;1.00
75960;PMS7003;64644;48.914;2.254;2023-09-18T14:14:58;1.25;1.25;1.25
75960;PMS7003;64644;48.914;2.254;2023-09-18T14:17:24;2.00;2.00;1.00
75960;PMS7003;64644;48.914;2.254;2023-09-18T14:19:50;2.00;1.00;1.00
75960;PMS7003;64644;48.914;2.254;2023-09-18T14:22:18;1.00;1.00;1.00
75960;PMS7003;64644;48.914;2.254;2023-09-18T14:24:46;1.50;1.50;1.00
75960;PMS7003;64644;48.914;2.254;2023-09-18T14:27:12;0.50;0.50;0.50
75960;PMS7003;64644;48.914;2.254;2023-09-18T14:29:38;1.25;1.00;1.00
75960;PMS7003;64644;48.914;2.254;2023-09-18T14:32:04;0.75;0.75;0.75
75960;PMS7003;64644;48.914;2.254;2023-09-18T14:34:30;3.00;3.00;2.00
75960;PMS7003;64644;48.914;2.254;2023-09-18T14:36:56;1.50;1.50;1.25
75960;PMS7003;64644;48.914;2.254;2023-09-18T14:39:22;1.00;1.00;1.00